Terminal Aerodrome Forecast
Issued by NWS

Home | Current Version | Previous Version | Graphics & Text | Print | Product List | Glossary On
Versions: 1 2 3 4 5 6 7 8 9 10 11 12 13 14 15 16 17 18 19
587
FTUS43 KICT 271403 AAA
TAFSLN
TAF AMD
KSLN 271403Z 2714/2812 29015G22KT P6SM VCSH SCT015
     FM271600 28017G24KT P6SM VCSH BKN035
     FM280000 29016G23KT P6SM SCT100=

USA.gov is the U.S. government's official web portal to all federal, state and local government web resources and services.